createdAt,value
2018-03-11T00:01:23.632Z,88.80
2018-03-11T00:03:51.307Z,88.80
2018-03-11T00:06:19.036Z,88.40
2018-03-11T00:08:46.801Z,89.10
2018-03-11T00:11:14.485Z,89.60
2018-03-11T00:13:42.297Z,89.10
2018-03-11T00:16:09.939Z,89.60
2018-03-11T00:18:38.445Z,89.50
2018-03-11T00:21:06.136Z,89.50
2018-03-11T00:23:33.800Z,89.70
2018-03-11T00:26:01.676Z,89.30
2018-03-11T00:28:29.375Z,89.20
2018-03-11T00:30:57.116Z,89.20
2018-03-11T00:33:24.807Z,90.10
2018-03-11T00:35:52.431Z,90.00
2018-03-11T00:38:20.104Z,90.30
2018-03-11T00:40:48.614Z,90.60
2018-03-11T00:43:16.365Z,90.60
2018-03-11T00:45:44.232Z,91.10
2018-03-11T00:48:12.030Z,90.40
2018-03-11T00:50:39.730Z,90.10
2018-03-11T00:53:07.372Z,90.60
2018-03-11T00:55:35.080Z,90.60
2018-03-11T00:58:03.500Z,90.90
2018-03-11T01:00:31.175Z,90.90
2018-03-11T01:02:58.951Z,90.90
2018-03-11T01:05:26.579Z,90.80
2018-03-11T01:07:54.363Z,90.90
2018-03-11T01:10:22.857Z,90.90
2018-03-11T01:12:50.553Z,90.90
2018-03-11T01:15:18.206Z,90.90
2018-03-11T01:17:47.112Z,90.70
2018-03-11T01:20:14.713Z,90.70
2018-03-11T01:22:42.362Z,90.80
2018-03-11T01:25:10.051Z,90.70
2018-03-11T01:27:38.583Z,90.70
2018-03-11T01:30:06.229Z,90.60
2018-03-11T01:32:33.949Z,90.60
2018-03-11T01:35:01.811Z,90.50
2018-03-11T01:37:29.411Z,90.60
2018-03-11T01:39:57.056Z,90.70
2018-03-11T01:42:24.692Z,90.70
2018-03-11T01:44:52.395Z,90.60
2018-03-11T01:47:20.831Z,90.70
2018-03-11T01:49:48.437Z,90.70
2018-03-11T01:52:16.925Z,90.70
2018-03-11T01:54:44.578Z,90.70
2018-03-11T01:57:13.092Z,90.60
2018-03-11T01:59:40.757Z,90.60
2018-03-11T02:02:08.392Z,90.60
2018-03-11T02:04:36.790Z,90.70
2018-03-11T02:07:04.503Z,90.70
2018-03-11T02:09:32.152Z,90.70
2018-03-11T02:11:59.856Z,90.60
2018-03-11T02:14:28.276Z,90.60
2018-03-11T02:16:55.918Z,90.60
2018-03-11T02:19:23.695Z,90.70
2018-03-11T02:21:51.299Z,90.70
2018-03-11T02:24:19.087Z,90.80
2018-03-11T02:26:46.753Z,90.90
2018-03-11T02:29:14.413Z,91.10
2018-03-11T02:31:42.139Z,91.10
2018-03-11T02:34:09.833Z,91.30
2018-03-11T02:36:37.532Z,91.30
2018-03-11T02:39:05.174Z,91.40
2018-03-11T02:41:32.839Z,91.40
2018-03-11T02:44:00.487Z,91.40
2018-03-11T02:46:28.140Z,91.50
2018-03-11T02:48:55.809Z,91.50
2018-03-11T02:51:24.559Z,91.60
2018-03-11T02:53:52.297Z,91.70
2018-03-11T02:56:19.909Z,91.60
2018-03-11T02:58:47.559Z,91.80
2018-03-11T03:01:15.949Z,91.90
2018-03-11T03:03:44.384Z,92.00
2018-03-11T03:06:12.116Z,92.00
2018-03-11T03:08:42.980Z,92.10
2018-03-11T03:11:10.617Z,92.20
2018-03-11T03:13:38.256Z,92.50
2018-03-11T03:16:06.688Z,92.60
2018-03-11T03:18:34.357Z,92.60
2018-03-11T03:21:01.977Z,92.70
2018-03-11T03:23:29.637Z,92.80
2018-03-11T03:25:57.283Z,92.90
2018-03-11T03:28:26.125Z,93.10
2018-03-11T03:30:53.758Z,93.10
2018-03-11T03:33:21.432Z,93.20
2018-03-11T03:35:49.076Z,93.20
2018-03-11T03:38:16.747Z,93.10
2018-03-11T03:40:44.537Z,93.20
2018-03-11T03:43:12.188Z,93.20
2018-03-11T03:45:39.849Z,93.20
2018-03-11T03:48:07.495Z,93.30
2018-03-11T03:50:35.780Z,93.30
2018-03-11T03:53:03.470Z,93.40
2018-03-11T03:55:31.155Z,93.40
2018-03-11T03:57:58.818Z,93.50
2018-03-11T04:00:26.456Z,93.80
2018-03-11T04:02:54.140Z,93.80
2018-03-11T04:05:22.619Z,93.80
2018-03-11T04:07:50.222Z,93.80
2018-03-11T04:10:18.101Z,93.70
2018-03-11T04:12:45.750Z,93.70
2018-03-11T04:15:13.392Z,93.70
2018-03-11T04:17:41.013Z,93.80
2018-03-11T04:20:08.652Z,93.80
2018-03-11T04:22:36.327Z,94.30
2018-03-11T04:25:03.977Z,94.00
2018-03-11T04:27:31.656Z,94.00
2018-03-11T04:29:59.265Z,94.10
2018-03-11T04:32:26.922Z,94.10
2018-03-11T04:34:54.606Z,94.00
2018-03-11T04:37:22.266Z,94.10
2018-03-11T04:39:49.952Z,94.10
2018-03-11T04:42:17.688Z,94.10
2018-03-11T04:44:45.410Z,94.10
2018-03-11T04:47:13.023Z,94.10
2018-03-11T04:49:40.674Z,94.00
2018-03-11T04:52:08.291Z,94.00
2018-03-11T04:54:35.940Z,94.00
2018-03-11T04:57:03.582Z,94.00
2018-03-11T04:59:31.521Z,94.00
2018-03-11T05:01:59.216Z,94.00
2018-03-11T05:04:26.897Z,94.10
2018-03-11T05:06:54.591Z,94.10
2018-03-11T05:09:22.288Z,94.00
2018-03-11T05:11:50.014Z,94.20
2018-03-11T05:14:17.651Z,94.20
2018-03-11T05:16:45.325Z,94.40
2018-03-11T05:19:14.229Z,94.60
2018-03-11T05:21:41.892Z,94.50
2018-03-11T05:24:09.593Z,94.50
2018-03-11T05:26:38.532Z,94.50
2018-03-11T05:29:06.370Z,94.60
2018-03-11T05:31:33.987Z,94.50
2018-03-11T05:34:01.757Z,94.40
2018-03-11T05:36:29.447Z,94.40
2018-03-11T05:38:57.177Z,94.50
2018-03-11T05:41:24.867Z,94.50
2018-03-11T05:43:52.499Z,94.60
2018-03-11T05:46:20.151Z,94.60
2018-03-11T05:48:47.919Z,94.50
2018-03-11T05:51:15.935Z,94.50
2018-03-11T05:53:43.865Z,94.50
2018-03-11T05:56:11.726Z,94.40
2018-03-11T05:58:40.392Z,94.00
2018-03-11T06:01:08.062Z,93.50
2018-03-11T06:03:35.845Z,93.50
2018-03-11T06:06:03.493Z,93.50
2018-03-11T06:08:31.226Z,93.50
2018-03-11T06:10:59.604Z,93.50
2018-03-11T06:13:27.331Z,93.50
2018-03-11T06:15:55.097Z,93.30
2018-03-11T06:18:22.739Z,93.20
2018-03-11T06:20:50.404Z,93.00
2018-03-11T06:23:18.023Z,93.20
2018-03-11T06:25:45.721Z,92.70
2018-03-11T06:28:13.356Z,92.10
2018-03-11T06:30:41.053Z,91.30
2018-03-11T06:33:08.733Z,90.50
2018-03-11T06:35:36.636Z,88.70
2018-03-11T06:38:04.280Z,84.70
2018-03-11T06:40:31.894Z,82.00
2018-03-11T06:42:59.584Z,79.20
2018-03-11T06:45:27.235Z,75.60
2018-03-11T06:47:54.906Z,73.60
2018-03-11T06:50:22.702Z,72.90
2018-03-11T06:52:50.676Z,72.50
2018-03-11T06:55:19.119Z,70.00
2018-03-11T06:57:46.780Z,70.00
2018-03-11T07:00:14.869Z,65.00
2018-03-11T07:02:42.545Z,63.60
2018-03-11T07:05:10.962Z,62.90
2018-03-11T07:07:38.637Z,62.90
2018-03-11T07:10:06.416Z,63.20
2018-03-11T07:12:34.060Z,65.70
2018-03-11T07:15:01.758Z,66.80
2018-03-11T07:17:29.419Z,67.80
2018-03-11T07:19:57.031Z,67.40
2018-03-11T07:22:24.700Z,64.70
2018-03-11T07:24:52.360Z,63.00
2018-03-11T07:27:20.058Z,61.70
2018-03-11T07:29:47.823Z,61.00
2018-03-11T07:32:15.490Z,59.90
2018-03-11T07:34:43.204Z,59.40
2018-03-11T07:37:10.867Z,58.30
2018-03-11T07:39:38.568Z,58.70
2018-03-11T07:42:06.229Z,59.10
2018-03-11T07:44:34.068Z,58.10
2018-03-11T07:47:01.733Z,56.40
2018-03-11T07:49:29.471Z,54.80
2018-03-11T07:51:57.190Z,54.10
2018-03-11T07:54:24.988Z,53.10
2018-03-11T07:56:52.665Z,53.10
2018-03-11T07:59:20.306Z,53.60
2018-03-11T08:01:47.995Z,54.40
2018-03-11T08:04:15.629Z,55.70
2018-03-11T08:06:43.295Z,55.30
2018-03-11T08:09:11.071Z,55.60
2018-03-11T08:11:38.815Z,53.90
2018-03-11T08:14:06.555Z,54.30
2018-03-11T08:16:34.200Z,55.00
2018-03-11T08:19:02.235Z,54.70
2018-03-11T08:21:29.853Z,55.00
2018-03-11T08:23:58.620Z,54.70
2018-03-11T08:26:26.315Z,54.60
2018-03-11T08:28:54.882Z,56.40
2018-03-11T08:31:22.561Z,56.40
2018-03-11T08:33:51.096Z,58.60
2018-03-11T08:36:18.808Z,58.60
2018-03-11T08:38:47.247Z,57.80
2018-03-11T08:41:15.004Z,57.80
2018-03-11T08:43:42.898Z,58.50
2018-03-11T08:46:11.744Z,56.10
2018-03-11T08:48:39.614Z,56.10
2018-03-11T08:51:07.326Z,56.40
2018-03-11T08:53:35.955Z,57.00
2018-03-11T08:56:03.685Z,58.80
2018-03-11T08:58:31.485Z,58.80
2018-03-11T09:00:59.375Z,57.60
2018-03-11T09:03:27.156Z,57.70
2018-03-11T09:05:54.838Z,57.40
2018-03-11T09:08:23.620Z,57.60
2018-03-11T09:10:52.108Z,56.20
2018-03-11T09:13:20.537Z,55.10
2018-03-11T09:15:48.310Z,55.10
2018-03-11T09:18:16.111Z,55.40
2018-03-11T09:20:44.551Z,54.30
2018-03-11T09:23:12.332Z,54.20
2018-03-11T09:25:40.414Z,54.70
2018-03-11T09:28:08.967Z,53.70
2018-03-11T09:30:36.619Z,53.60
2018-03-11T09:33:04.442Z,54.40
2018-03-11T09:35:32.901Z,55.20
2018-03-11T09:38:00.794Z,55.30
2018-03-11T09:40:28.508Z,54.40
2018-03-11T09:42:56.617Z,54.80
2018-03-11T09:45:25.101Z,54.60
2018-03-11T09:47:53.555Z,54.30
2018-03-11T09:50:21.238Z,54.30
2018-03-11T09:52:49.620Z,53.80
2018-03-11T09:55:18.671Z,53.80
2018-03-11T09:57:46.312Z,53.80
2018-03-11T10:00:14.044Z,53.70
2018-03-11T10:02:41.702Z,53.80
2018-03-11T10:05:09.375Z,53.80
2018-03-11T10:07:37.086Z,54.00
2018-03-11T10:10:04.781Z,53.00
2018-03-11T10:12:33.694Z,53.20
2018-03-11T10:15:01.337Z,52.80
2018-03-11T10:17:29.873Z,52.60
2018-03-11T10:19:57.484Z,52.60
2018-03-11T10:22:25.994Z,51.50
2018-03-11T10:24:53.652Z,51.50
2018-03-11T10:27:21.357Z,50.70
2018-03-11T10:29:49.424Z,51.10
2018-03-11T10:32:17.099Z,50.60
2018-03-11T10:34:44.728Z,51.40
2018-03-11T10:37:12.354Z,51.50
2018-03-11T10:39:40.897Z,51.10
2018-03-11T10:42:08.583Z,51.90
2018-03-11T10:44:37.276Z,51.20
2018-03-11T10:47:08.387Z,51.20
2018-03-11T10:49:36.017Z,50.80
2018-03-11T10:52:04.697Z,52.00
2018-03-11T10:54:33.375Z,52.00
2018-03-11T10:57:01.103Z,53.10
2018-03-11T10:59:28.835Z,52.70
2018-03-11T11:02:01.518Z,50.30
2018-03-11T11:04:34.404Z,49.10
2018-03-11T11:07:02.784Z,49.50
2018-03-11T11:09:31.246Z,49.60
2018-03-11T11:11:59.985Z,48.40
2018-03-11T11:14:27.696Z,48.20
2018-03-11T11:16:56.132Z,49.80
2018-03-11T11:19:24.353Z,49.80
2018-03-11T11:21:52.069Z,50.30
2018-03-11T11:24:19.744Z,51.40
2018-03-11T11:26:47.535Z,51.50
2018-03-11T11:29:16.552Z,52.10
2018-03-11T11:31:44.192Z,51.60
2018-03-11T11:34:12.632Z,49.90
2018-03-11T11:36:40.770Z,49.80
2018-03-11T11:39:08.751Z,49.80
2018-03-11T11:41:38.892Z,50.00
2018-03-11T11:44:06.618Z,50.10
2018-03-11T11:46:35.968Z,49.60
2018-03-11T11:49:04.163Z,49.00
2018-03-11T11:51:31.818Z,48.60
2018-03-11T11:53:59.968Z,48.40
2018-03-11T11:56:27.574Z,49.40
2018-03-11T11:58:56.037Z,49.60
2018-03-11T12:01:23.767Z,49.60
2018-03-11T12:03:51.542Z,48.20
2018-03-11T12:06:19.182Z,46.30
2018-03-11T12:08:46.843Z,44.20
2018-03-11T12:11:14.482Z,41.80
2018-03-11T12:13:42.163Z,39.90
2018-03-11T12:16:11.312Z,38.10
2018-03-11T12:18:39.744Z,40.20
2018-03-11T12:21:07.899Z,40.20
2018-03-11T12:23:35.629Z,41.00
2018-03-11T12:26:04.410Z,37.20
2018-03-11T12:28:32.841Z,36.20
2018-03-11T12:31:01.642Z,36.20
2018-03-11T12:33:29.281Z,36.90
2018-03-11T12:35:57.604Z,39.00
2018-03-11T12:38:26.543Z,39.90
2018-03-11T12:40:54.231Z,41.10
2018-03-11T12:43:21.909Z,42.60
2018-03-11T12:45:51.023Z,43.80
2018-03-11T12:48:18.851Z,44.80
2018-03-11T12:50:46.479Z,44.60
2018-03-11T12:53:14.236Z,44.90
2018-03-11T12:55:42.659Z,45.80
2018-03-11T12:58:12.014Z,45.60
2018-03-11T13:00:39.674Z,45.40
2018-03-11T13:03:07.391Z,45.40
2018-03-11T13:05:35.044Z,45.90
2018-03-11T13:08:02.677Z,44.80
2018-03-11T13:10:30.750Z,44.20
2018-03-11T13:12:58.424Z,43.80
2018-03-11T13:15:26.088Z,43.90
2018-03-11T13:17:57.053Z,43.80
2018-03-11T13:20:37.135Z,44.30
2018-03-11T13:23:05.285Z,43.80
2018-03-11T13:25:34.426Z,43.60
2018-03-11T13:28:14.431Z,44.60
2018-03-11T13:30:42.446Z,44.50
2018-03-11T13:33:21.967Z,44.70
2018-03-11T13:35:49.952Z,45.10
2018-03-11T13:38:29.979Z,45.80
2018-03-11T13:40:57.643Z,45.70
2018-03-11T13:43:25.412Z,46.20
2018-03-11T13:46:04.804Z,45.90
2018-03-11T13:48:32.448Z,46.30
2018-03-11T13:51:00.323Z,46.30
2018-03-11T13:53:39.679Z,46.30
2018-03-11T13:56:09.975Z,46.30
2018-03-11T13:58:44.995Z,45.70
2018-03-11T14:01:13.422Z,45.80
2018-03-11T14:03:41.297Z,45.70
2018-03-11T14:06:08.991Z,46.30
2018-03-11T14:08:36.744Z,46.70
2018-03-11T14:11:06.469Z,46.00
2018-03-11T14:13:34.414Z,45.90
2018-03-11T14:16:02.639Z,46.10
2018-03-11T14:18:30.832Z,47.00
2018-03-11T14:20:59.335Z,47.60
2018-03-11T14:23:27.299Z,47.50
2018-03-11T14:25:55.077Z,47.90
2018-03-11T14:28:22.765Z,48.30
2018-03-11T14:30:50.471Z,49.00
2018-03-11T14:33:18.172Z,49.00
2018-03-11T14:35:46.923Z,49.40
2018-03-11T14:38:14.963Z,49.20
2018-03-11T14:40:46.221Z,49.10
2018-03-11T14:43:14.067Z,49.40
2018-03-11T14:45:41.742Z,50.10
2018-03-11T14:48:09.646Z,50.40
2018-03-11T14:50:37.279Z,51.10
2018-03-11T14:53:04.986Z,51.40
2018-03-11T14:55:33.484Z,51.90
2018-03-11T14:58:02.598Z,51.90
2018-03-11T15:00:30.279Z,51.70
2018-03-11T15:02:59.110Z,51.70
2018-03-11T15:05:27.622Z,51.50
2018-03-11T15:07:55.310Z,51.40
2018-03-11T15:10:22.950Z,51.50
2018-03-11T15:12:50.773Z,52.00
2018-03-11T15:15:18.528Z,51.90
2018-03-11T15:17:48.119Z,52.20
2018-03-11T15:20:15.771Z,52.10
2018-03-11T15:22:43.444Z,51.90
2018-03-11T15:25:11.210Z,52.00
2018-03-11T15:27:39.399Z,52.30
2018-03-11T15:30:09.127Z,52.20
2018-03-11T15:32:36.968Z,52.10
2018-03-11T15:35:04.957Z,52.30
2018-03-11T15:37:33.421Z,52.70
2018-03-11T15:40:01.857Z,53.20
2018-03-11T15:42:31.158Z,52.80
2018-03-11T15:44:58.803Z,53.10
2018-03-11T15:47:26.548Z,53.20
2018-03-11T15:49:54.559Z,53.60
2018-03-11T15:52:22.225Z,53.40
2018-03-11T15:54:49.853Z,53.50
2018-03-11T15:57:17.584Z,53.70
2018-03-11T15:59:45.270Z,53.90
2018-03-11T16:02:12.991Z,54.00
2018-03-11T16:04:44.325Z,54.10
2018-03-11T16:07:15.811Z,54.20
2018-03-11T16:09:43.625Z,54.50
2018-03-11T16:12:11.310Z,54.50
2018-03-11T16:14:40.124Z,54.70
2018-03-11T16:17:07.885Z,54.40
2018-03-11T16:19:35.588Z,54.70
2018-03-11T16:22:04.259Z,54.80
2018-03-11T16:24:39.616Z,54.70
2018-03-11T16:27:00.575Z,55.50
2018-03-11T16:29:28.202Z,55.50
2018-03-11T16:31:55.862Z,55.10
2018-03-11T16:34:24.024Z,55.20
2018-03-11T16:36:52.871Z,55.80
2018-03-11T16:39:20.548Z,55.80
2018-03-11T16:41:48.293Z,55.90
2018-03-11T16:44:16.348Z,56.10
2018-03-11T16:46:44.364Z,56.10
2018-03-11T16:49:12.048Z,56.60
2018-03-11T16:51:40.999Z,56.70
2018-03-11T16:54:08.755Z,56.90
2018-03-11T16:56:37.388Z,57.30
2018-03-11T16:59:05.178Z,57.30
2018-03-11T17:01:32.898Z,57.50
2018-03-11T17:04:00.688Z,57.80
2018-03-11T17:06:28.385Z,58.20
2018-03-11T17:08:56.627Z,59.00
2018-03-11T17:11:28.744Z,61.00
2018-03-11T17:13:56.400Z,62.50
2018-03-11T17:16:24.206Z,63.70
2018-03-11T17:18:52.919Z,65.10
2018-03-11T17:21:20.859Z,65.80
2018-03-11T17:23:48.608Z,66.50
2018-03-11T17:26:16.380Z,66.90
2018-03-11T17:28:44.281Z,68.00
2018-03-11T17:31:12.207Z,67.60
2018-03-11T17:33:39.939Z,67.80
2018-03-11T17:36:08.746Z,67.80
2018-03-11T17:38:36.550Z,68.00
2018-03-11T17:41:04.327Z,68.20
2018-03-11T17:43:32.064Z,68.10
2018-03-11T17:45:59.886Z,68.10
2018-03-11T17:48:27.756Z,68.20
2018-03-11T17:50:55.602Z,67.80
2018-03-11T17:53:23.393Z,67.60
2018-03-11T17:55:51.875Z,67.70
2018-03-11T17:58:19.570Z,67.60
2018-03-11T18:00:47.290Z,68.00
2018-03-11T18:05:49.179Z,69.10
2018-03-11T18:08:16.908Z,68.30
2018-03-11T18:10:45.472Z,68.40
2018-03-11T18:13:13.417Z,68.40
2018-03-11T18:15:41.238Z,68.70
2018-03-11T18:18:09.035Z,68.60
2018-03-11T18:20:36.688Z,68.40
2018-03-11T18:23:04.476Z,68.40
2018-03-11T18:25:32.206Z,68.10
2018-03-11T18:27:59.966Z,68.30
2018-03-11T18:30:27.775Z,68.20
2018-03-11T18:32:55.482Z,68.20
2018-03-11T18:35:23.867Z,67.90
2018-03-11T18:37:52.150Z,67.90
2018-03-11T18:40:19.930Z,68.10
2018-03-11T18:42:47.634Z,68.40
2018-03-11T18:45:15.686Z,68.10
2018-03-11T18:47:43.974Z,67.70
2018-03-11T18:50:11.887Z,67.50
2018-03-11T18:52:39.758Z,67.50
2018-03-11T18:55:07.564Z,67.70
2018-03-11T18:57:35.259Z,67.50
2018-03-11T19:00:03.023Z,67.30
2018-03-11T19:02:30.884Z,67.30
2018-03-11T19:04:59.480Z,67.30
2018-03-11T19:07:27.961Z,67.00
2018-03-11T19:09:55.719Z,67.00
2018-03-11T19:12:23.482Z,67.10
2018-03-11T19:14:52.482Z,66.60
2018-03-11T19:17:21.095Z,66.50
2018-03-11T19:19:48.972Z,66.50
2018-03-11T19:22:16.745Z,67.40
2018-03-11T19:24:44.508Z,67.50
2018-03-11T19:27:12.173Z,67.60
2018-03-11T19:29:40.762Z,68.00
2018-03-11T19:32:08.454Z,68.00
2018-03-11T19:34:37.196Z,68.40
2018-03-11T19:37:04.894Z,68.40
2018-03-11T19:39:32.680Z,68.50
2018-03-11T19:42:01.453Z,68.80
2018-03-11T19:44:29.366Z,68.80
2018-03-11T19:46:57.291Z,68.90
2018-03-11T19:49:26.616Z,69.70
2018-03-11T19:51:54.897Z,69.70
2018-03-11T19:54:22.559Z,69.80
2018-03-11T19:56:50.377Z,70.20
2018-03-11T19:59:18.133Z,70.50
2018-03-11T20:01:45.812Z,70.60
2018-03-11T20:04:14.282Z,70.10
2018-03-11T20:06:42.017Z,70.10
2018-03-11T20:09:09.726Z,70.00
2018-03-11T20:11:38.240Z,70.50
2018-03-11T20:14:06.015Z,70.50
2018-03-11T20:16:34.575Z,71.40
2018-03-11T20:19:02.543Z,71.40
2018-03-11T20:21:30.319Z,71.90
2018-03-11T20:23:57.982Z,72.30
2018-03-11T20:26:27.172Z,72.90
2018-03-11T20:28:56.289Z,73.20
2018-03-11T20:31:24.266Z,74.60
2018-03-11T20:33:53.711Z,74.80
2018-03-11T20:36:21.483Z,74.80
2018-03-11T20:38:49.137Z,75.10
2018-03-11T20:41:17.699Z,76.00
2018-03-11T20:43:45.831Z,76.00
2018-03-11T20:46:13.641Z,76.30
2018-03-11T20:48:42.182Z,76.80
2018-03-11T20:51:09.949Z,77.10
2018-03-11T20:53:38.032Z,77.50
2018-03-11T20:56:05.750Z,77.50
2018-03-11T20:58:33.619Z,77.60
2018-03-11T21:01:02.543Z,77.90
2018-03-11T21:03:31.288Z,77.80
2018-03-11T21:05:58.973Z,77.80
2018-03-11T21:08:30.315Z,78.10
2018-03-11T21:10:58.645Z,78.50
2018-03-11T21:13:26.328Z,78.80
2018-03-11T21:15:54.922Z,79.40
2018-03-11T21:18:23.384Z,80.10
2018-03-11T21:20:51.147Z,80.00
2018-03-11T21:23:19.712Z,80.10
2018-03-11T21:25:47.314Z,80.10
2018-03-11T21:28:16.783Z,81.00
2018-03-11T21:30:44.534Z,81.00
2018-03-11T21:33:12.244Z,81.00
2018-03-11T21:35:39.917Z,80.90
2018-03-11T21:38:07.628Z,80.90
2018-03-11T21:40:37.054Z,81.60
2018-03-11T21:43:04.731Z,82.30
2018-03-11T21:45:32.970Z,82.60
2018-03-11T21:48:00.932Z,82.60
2018-03-11T21:50:28.701Z,82.90
2018-03-11T21:52:56.420Z,83.00
2018-03-11T21:55:29.009Z,82.50
2018-03-11T21:57:59.622Z,82.60
2018-03-11T22:00:28.162Z,82.80
2018-03-11T22:02:55.843Z,82.80
2018-03-11T22:05:23.930Z,83.40
2018-03-11T22:07:52.489Z,82.50
2018-03-11T22:10:21.061Z,82.80
2018-03-11T22:12:48.840Z,82.90
2018-03-11T22:15:16.738Z,83.00
2018-03-11T22:17:44.592Z,83.10
2018-03-11T22:20:13.033Z,82.90
2018-03-11T22:22:40.675Z,82.90
2018-03-11T22:25:08.379Z,82.60
2018-03-11T22:27:36.261Z,82.50
2018-03-11T22:30:04.693Z,82.50
2018-03-11T22:32:32.385Z,82.50
2018-03-11T22:35:00.243Z,82.10
2018-03-11T22:37:27.927Z,81.00
2018-03-11T22:39:56.386Z,80.80
2018-03-11T22:42:24.110Z,80.80
2018-03-11T22:44:51.864Z,82.50
2018-03-11T22:47:19.597Z,82.10
2018-03-11T22:49:48.067Z,82.50
2018-03-11T22:52:15.725Z,82.50
2018-03-11T22:54:43.682Z,82.80
2018-03-11T22:57:11.466Z,83.00
2018-03-11T22:59:39.964Z,83.20
2018-03-11T23:02:08.606Z,83.30
2018-03-11T23:04:36.317Z,83.20
2018-03-11T23:07:04.102Z,83.30
2018-03-11T23:09:31.742Z,82.90
2018-03-11T23:11:59.398Z,82.70
2018-03-11T23:14:27.385Z,82.90
2018-03-11T23:16:55.147Z,82.90
2018-03-11T23:19:22.924Z,83.10
2018-03-11T23:21:50.677Z,83.40
2018-03-11T23:24:18.409Z,83.50
2018-03-11T23:26:46.901Z,83.80
2018-03-11T23:29:14.739Z,83.80
2018-03-11T23:31:42.519Z,84.00
2018-03-11T23:34:10.147Z,84.30
2018-03-11T23:36:37.904Z,84.60
2018-03-11T23:39:05.545Z,84.80
2018-03-11T23:41:33.669Z,85.80
2018-03-11T23:44:01.446Z,85.40
2018-03-11T23:46:29.474Z,86.00
2018-03-11T23:48:57.403Z,86.20
2018-03-11T23:51:25.336Z,86.50
2018-03-11T23:53:53.264Z,87.50
2018-03-11T23:56:21.129Z,88.00
2018-03-11T23:58:48.896Z,89.00
